sensor_id;sensor_type;location;lat;lon;timestamp;P1;durP1;ratioP1;P2;durP2;ratioP2
23159;SDS011;11748;50.844;4.396;2023-11-21T00:00:12;36.05;;;20.63;;
23159;SDS011;11748;50.844;4.396;2023-11-21T00:02:39;39.63;;;21.65;;
23159;SDS011;11748;50.844;4.396;2023-11-21T00:05:07;38.30;;;21.50;;
23159;SDS011;11748;50.844;4.396;2023-11-21T00:07:37;34.72;;;21.60;;
23159;SDS011;11748;50.844;4.396;2023-11-21T00:10:04;41.30;;;22.50;;
23159;SDS011;11748;50.844;4.396;2023-11-21T00:12:30;39.20;;;21.58;;
23159;SDS011;11748;50.844;4.396;2023-11-21T00:14:57;40.90;;;22.10;;
23159;SDS011;11748;50.844;4.396;2023-11-21T00:17:23;37.70;;;22.27;;
23159;SDS011;11748;50.844;4.396;2023-11-21T00:19:49;39.55;;;22.23;;
23159;SDS011;11748;50.844;4.396;2023-11-21T00:22:17;40.03;;;21.70;;
23159;SDS011;11748;50.844;4.396;2023-11-21T00:24:43;43.40;;;22.23;;
23159;SDS011;11748;50.844;4.396;2023-11-21T00:27:09;37.17;;;21.63;;
23159;SDS011;11748;50.844;4.396;2023-11-21T00:29:35;43.58;;;22.15;;
23159;SDS011;11748;50.844;4.396;2023-11-21T00:32:01;38.78;;;22.27;;
23159;SDS011;11748;50.844;4.396;2023-11-21T00:34:27;40.58;;;22.40;;
23159;SDS011;11748;50.844;4.396;2023-11-21T00:36:53;37.88;;;22.50;;
23159;SDS011;11748;50.844;4.396;2023-11-21T00:39:18;38.40;;;22.77;;
23159;SDS011;11748;50.844;4.396;2023-11-21T00:41:44;43.88;;;23.67;;
23159;SDS011;11748;50.844;4.396;2023-11-21T00:44:10;44.03;;;23.88;;
23159;SDS011;11748;50.844;4.396;2023-11-21T00:46:36;43.90;;;24.35;;
23159;SDS011;11748;50.844;4.396;2023-11-21T00:49:02;41.03;;;23.13;;
23159;SDS011;11748;50.844;4.396;2023-11-21T00:51:31;43.13;;;24.05;;
23159;SDS011;11748;50.844;4.396;2023-11-21T00:53:57;43.20;;;23.42;;
23159;SDS011;11748;50.844;4.396;2023-11-21T00:56:23;43.08;;;23.73;;
23159;SDS011;11748;50.844;4.396;2023-11-21T00:58:49;41.00;;;22.27;;
23159;SDS011;11748;50.844;4.396;2023-11-21T01:01:18;39.33;;;22.85;;
23159;SDS011;11748;50.844;4.396;2023-11-21T01:03:45;39.22;;;23.70;;
23159;SDS011;11748;50.844;4.396;2023-11-21T01:06:11;36.53;;;23.17;;
23159;SDS011;11748;50.844;4.396;2023-11-21T01:08:37;38.33;;;22.80;;
23159;SDS011;11748;50.844;4.396;2023-11-21T01:11:03;40.50;;;23.33;;
23159;SDS011;11748;50.844;4.396;2023-11-21T01:13:30;40.15;;;23.05;;
23159;SDS011;11748;50.844;4.396;2023-11-21T01:15:56;38.50;;;22.50;;
23159;SDS011;11748;50.844;4.396;2023-11-21T01:18:22;41.38;;;23.42;;
23159;SDS011;11748;50.844;4.396;2023-11-21T01:20:50;39.80;;;22.65;;
23159;SDS011;11748;50.844;4.396;2023-11-21T01:23:18;41.58;;;22.05;;
23159;SDS011;11748;50.844;4.396;2023-11-21T01:25:44;40.38;;;23.85;;
23159;SDS011;11748;50.844;4.396;2023-11-21T01:28:10;38.88;;;22.90;;
23159;SDS011;11748;50.844;4.396;2023-11-21T01:30:36;39.22;;;23.88;;
23159;SDS011;11748;50.844;4.396;2023-11-21T01:33:02;42.88;;;23.77;;
23159;SDS011;11748;50.844;4.396;2023-11-21T01:35:28;37.65;;;23.48;;
23159;SDS011;11748;50.844;4.396;2023-11-21T01:37:54;35.72;;;22.33;;
23159;SDS011;11748;50.844;4.396;2023-11-21T01:40:20;40.80;;;24.02;;
23159;SDS011;11748;50.844;4.396;2023-11-21T01:42:46;34.42;;;21.85;;
23159;SDS011;11748;50.844;4.396;2023-11-21T01:45:12;36.95;;;22.05;;
23159;SDS011;11748;50.844;4.396;2023-11-21T01:47:39;38.47;;;22.98;;
23159;SDS011;11748;50.844;4.396;2023-11-21T01:50:12;36.40;;;21.75;;
23159;SDS011;11748;50.844;4.396;2023-11-21T01:52:41;34.78;;;21.25;;
23159;SDS011;11748;50.844;4.396;2023-11-21T01:55:09;34.53;;;20.58;;
23159;SDS011;11748;50.844;4.396;2023-11-21T01:57:35;32.70;;;20.13;;
23159;SDS011;11748;50.844;4.396;2023-11-21T02:00:04;37.38;;;20.85;;
23159;SDS011;11748;50.844;4.396;2023-11-21T02:02:43;33.83;;;20.08;;
23159;SDS011;11748;50.844;4.396;2023-11-21T02:05:10;38.78;;;20.35;;
23159;SDS011;11748;50.844;4.396;2023-11-21T02:07:40;34.53;;;19.05;;
23159;SDS011;11748;50.844;4.396;2023-11-21T02:10:08;32.65;;;19.35;;
23159;SDS011;11748;50.844;4.396;2023-11-21T02:12:34;31.02;;;18.73;;
23159;SDS011;11748;50.844;4.396;2023-11-21T02:15:03;27.40;;;18.02;;
23159;SDS011;11748;50.844;4.396;2023-11-21T02:17:35;32.17;;;18.73;;
23159;SDS011;11748;50.844;4.396;2023-11-21T02:20:01;31.20;;;18.52;;
23159;SDS011;11748;50.844;4.396;2023-11-21T02:22:30;31.02;;;17.13;;
23159;SDS011;11748;50.844;4.396;2023-11-21T02:24:57;29.83;;;16.52;;
23159;SDS011;11748;50.844;4.396;2023-11-21T02:27:23;28.70;;;17.15;;
23159;SDS011;11748;50.844;4.396;2023-11-21T02:29:49;29.92;;;17.63;;
23159;SDS011;11748;50.844;4.396;2023-11-21T02:32:15;34.80;;;18.40;;
23159;SDS011;11748;50.844;4.396;2023-11-21T02:34:44;30.92;;;17.75;;
23159;SDS011;11748;50.844;4.396;2023-11-21T02:37:10;31.95;;;17.58;;
23159;SDS011;11748;50.844;4.396;2023-11-21T02:39:36;29.25;;;17.15;;
23159;SDS011;11748;50.844;4.396;2023-11-21T02:42:04;26.40;;;16.95;;
23159;SDS011;11748;50.844;4.396;2023-11-21T02:44:29;30.88;;;16.67;;
23159;SDS011;11748;50.844;4.396;2023-11-21T02:46:55;24.02;;;15.52;;
23159;SDS011;11748;50.844;4.396;2023-11-21T02:49:22;33.03;;;16.00;;
23159;SDS011;11748;50.844;4.396;2023-11-21T02:51:48;32.67;;;18.00;;
23159;SDS011;11748;50.844;4.396;2023-11-21T02:54:14;28.55;;;15.43;;
23159;SDS011;11748;50.844;4.396;2023-11-21T02:56:42;28.17;;;15.68;;
23159;SDS011;11748;50.844;4.396;2023-11-21T02:59:07;29.30;;;15.98;;
23159;SDS011;11748;50.844;4.396;2023-11-21T03:01:33;31.73;;;16.05;;
23159;SDS011;11748;50.844;4.396;2023-11-21T03:03:59;31.20;;;15.85;;
23159;SDS011;11748;50.844;4.396;2023-11-21T03:06:26;26.75;;;14.73;;
23159;SDS011;11748;50.844;4.396;2023-11-21T03:08:52;26.40;;;15.43;;
23159;SDS011;11748;50.844;4.396;2023-11-21T03:11:17;21.38;;;13.70;;
23159;SDS011;11748;50.844;4.396;2023-11-21T03:13:43;25.58;;;14.20;;
23159;SDS011;11748;50.844;4.396;2023-11-21T03:16:10;24.63;;;14.10;;
23159;SDS011;11748;50.844;4.396;2023-11-21T03:18:37;22.30;;;13.05;;
23159;SDS011;11748;50.844;4.396;2023-11-21T03:21:03;18.70;;;12.40;;
23159;SDS011;11748;50.844;4.396;2023-11-21T03:23:30;21.58;;;12.68;;
23159;SDS011;11748;50.844;4.396;2023-11-21T03:25:57;23.70;;;12.00;;
23159;SDS011;11748;50.844;4.396;2023-11-21T03:28:25;18.10;;;11.73;;
23159;SDS011;11748;50.844;4.396;2023-11-21T03:30:52;25.15;;;12.15;;
23159;SDS011;11748;50.844;4.396;2023-11-21T03:33:18;17.10;;;11.48;;
23159;SDS011;11748;50.844;4.396;2023-11-21T03:35:43;21.08;;;10.20;;
23159;SDS011;11748;50.844;4.396;2023-11-21T03:38:09;20.08;;;9.45;;
23159;SDS011;11748;50.844;4.396;2023-11-21T03:40:35;18.20;;;9.75;;
23159;SDS011;11748;50.844;4.396;2023-11-21T03:43:01;17.58;;;9.75;;
23159;SDS011;11748;50.844;4.396;2023-11-21T03:45:27;17.38;;;9.43;;
23159;SDS011;11748;50.844;4.396;2023-11-21T03:47:53;20.35;;;10.48;;
23159;SDS011;11748;50.844;4.396;2023-11-21T03:50:19;20.58;;;11.68;;
23159;SDS011;11748;50.844;4.396;2023-11-21T03:52:44;21.83;;;12.73;;
23159;SDS011;11748;50.844;4.396;2023-11-21T03:55:10;20.95;;;12.85;;
23159;SDS011;11748;50.844;4.396;2023-11-21T03:57:36;21.55;;;13.32;;
23159;SDS011;11748;50.844;4.396;2023-11-21T04:00:02;26.67;;;14.65;;
23159;SDS011;11748;50.844;4.396;2023-11-21T04:02:30;26.77;;;16.25;;
23159;SDS011;11748;50.844;4.396;2023-11-21T04:04:56;28.17;;;15.85;;
23159;SDS011;11748;50.844;4.396;2023-11-21T04:07:23;26.13;;;15.15;;
23159;SDS011;11748;50.844;4.396;2023-11-21T04:09:49;27.23;;;14.95;;
23159;SDS011;11748;50.844;4.396;2023-11-21T04:12:16;29.23;;;17.08;;
23159;SDS011;11748;50.844;4.396;2023-11-21T04:14:42;26.50;;;17.05;;
23159;SDS011;11748;50.844;4.396;2023-11-21T04:17:07;28.55;;;17.05;;
23159;SDS011;11748;50.844;4.396;2023-11-21T04:19:34;30.42;;;18.15;;
23159;SDS011;11748;50.844;4.396;2023-11-21T04:22:00;26.67;;;17.85;;
23159;SDS011;11748;50.844;4.396;2023-11-21T04:24:25;29.15;;;18.55;;
23159;SDS011;11748;50.844;4.396;2023-11-21T04:26:52;30.17;;;18.60;;
23159;SDS011;11748;50.844;4.396;2023-11-21T04:29:18;32.70;;;19.35;;
23159;SDS011;11748;50.844;4.396;2023-11-21T04:31:44;31.00;;;19.17;;
23159;SDS011;11748;50.844;4.396;2023-11-21T04:34:10;35.13;;;19.33;;
23159;SDS011;11748;50.844;4.396;2023-11-21T04:36:36;30.27;;;18.98;;
23159;SDS011;11748;50.844;4.396;2023-11-21T04:39:01;32.60;;;20.58;;
23159;SDS011;11748;50.844;4.396;2023-11-21T04:41:27;34.00;;;20.98;;
23159;SDS011;11748;50.844;4.396;2023-11-21T04:43:53;31.70;;;20.65;;
23159;SDS011;11748;50.844;4.396;2023-11-21T04:46:19;28.77;;;19.42;;
23159;SDS011;11748;50.844;4.396;2023-11-21T04:48:45;30.00;;;19.90;;
23159;SDS011;11748;50.844;4.396;2023-11-21T04:51:10;33.13;;;20.45;;
23159;SDS011;11748;50.844;4.396;2023-11-21T04:53:39;33.25;;;20.00;;
23159;SDS011;11748;50.844;4.396;2023-11-21T04:56:05;32.88;;;20.60;;
23159;SDS011;11748;50.844;4.396;2023-11-21T04:58:31;36.92;;;21.08;;
23159;SDS011;11748;50.844;4.396;2023-11-21T05:00:58;31.30;;;20.33;;
23159;SDS011;11748;50.844;4.396;2023-11-21T05:03:24;34.92;;;18.75;;
23159;SDS011;11748;50.844;4.396;2023-11-21T05:05:50;35.55;;;20.00;;
23159;SDS011;11748;50.844;4.396;2023-11-21T05:08:15;32.22;;;21.08;;
23159;SDS011;11748;50.844;4.396;2023-11-21T05:10:41;33.10;;;19.50;;
23159;SDS011;11748;50.844;4.396;2023-11-21T05:13:07;29.50;;;19.40;;
23159;SDS011;11748;50.844;4.396;2023-11-21T05:15:36;29.30;;;20.80;;
23159;SDS011;11748;50.844;4.396;2023-11-21T05:18:03;28.95;;;19.85;;
23159;SDS011;11748;50.844;4.396;2023-11-21T05:20:30;32.53;;;20.55;;
23159;SDS011;11748;50.844;4.396;2023-11-21T05:22:56;33.72;;;20.48;;
23159;SDS011;11748;50.844;4.396;2023-11-21T05:25:24;34.75;;;21.02;;
23159;SDS011;11748;50.844;4.396;2023-11-21T05:27:49;29.92;;;19.95;;
23159;SDS011;11748;50.844;4.396;2023-11-21T05:30:15;33.55;;;20.52;;
23159;SDS011;11748;50.844;4.396;2023-11-21T05:32:41;30.73;;;21.08;;
23159;SDS011;11748;50.844;4.396;2023-11-21T05:35:11;31.48;;;19.60;;
23159;SDS011;11748;50.844;4.396;2023-11-21T05:37:41;29.80;;;20.65;;
23159;SDS011;11748;50.844;4.396;2023-11-21T05:40:07;29.30;;;19.08;;
23159;SDS011;11748;50.844;4.396;2023-11-21T05:42:35;31.02;;;19.52;;
23159;SDS011;11748;50.844;4.396;2023-11-21T05:45:01;29.83;;;20.38;;
23159;SDS011;11748;50.844;4.396;2023-11-21T05:47:46;32.78;;;19.60;;
23159;SDS011;11748;50.844;4.396;2023-11-21T05:50:13;36.42;;;20.65;;
23159;SDS011;11748;50.844;4.396;2023-11-21T05:52:40;32.42;;;20.05;;
23159;SDS011;11748;50.844;4.396;2023-11-21T05:55:06;33.38;;;20.15;;
23159;SDS011;11748;50.844;4.396;2023-11-21T05:57:36;28.88;;;19.42;;
23159;SDS011;11748;50.844;4.396;2023-11-21T06:00:04;30.80;;;20.75;;
23159;SDS011;11748;50.844;4.396;2023-11-21T06:02:41;33.45;;;19.90;;
23159;SDS011;11748;50.844;4.396;2023-11-21T06:05:07;31.45;;;19.90;;
23159;SDS011;11748;50.844;4.396;2023-11-21T06:07:35;32.33;;;20.50;;
23159;SDS011;11748;50.844;4.396;2023-11-21T06:10:02;34.50;;;19.85;;
23159;SDS011;11748;50.844;4.396;2023-11-21T06:12:32;30.77;;;19.65;;
23159;SDS011;11748;50.844;4.396;2023-11-21T06:15:01;30.92;;;19.55;;
23159;SDS011;11748;50.844;4.396;2023-11-21T06:17:30;31.35;;;19.40;;
23159;SDS011;11748;50.844;4.396;2023-11-21T06:19:56;30.38;;;19.40;;
23159;SDS011;11748;50.844;4.396;2023-11-21T06:22:22;32.55;;;19.60;;
23159;SDS011;11748;50.844;4.396;2023-11-21T06:24:48;33.13;;;19.23;;
23159;SDS011;11748;50.844;4.396;2023-11-21T06:27:14;29.48;;;19.77;;
23159;SDS011;11748;50.844;4.396;2023-11-21T06:29:41;37.08;;;20.10;;
23159;SDS011;11748;50.844;4.396;2023-11-21T06:32:07;32.17;;;20.17;;
23159;SDS011;11748;50.844;4.396;2023-11-21T06:34:33;30.25;;;19.20;;
23159;SDS011;11748;50.844;4.396;2023-11-21T06:36:59;36.53;;;20.55;;
23159;SDS011;11748;50.844;4.396;2023-11-21T06:39:25;31.08;;;19.65;;
23159;SDS011;11748;50.844;4.396;2023-11-21T06:41:51;35.92;;;20.50;;
23159;SDS011;11748;50.844;4.396;2023-11-21T06:44:16;33.03;;;20.38;;
23159;SDS011;11748;50.844;4.396;2023-11-21T06:46:42;31.08;;;21.05;;
23159;SDS011;11748;50.844;4.396;2023-11-21T06:49:08;37.78;;;22.38;;
23159;SDS011;11748;50.844;4.396;2023-11-21T06:51:34;34.75;;;21.23;;
23159;SDS011;11748;50.844;4.396;2023-11-21T06:54:00;36.78;;;20.83;;
23159;SDS011;11748;50.844;4.396;2023-11-21T06:56:25;34.30;;;20.85;;
23159;SDS011;11748;50.844;4.396;2023-11-21T06:58:51;33.78;;;20.80;;
23159;SDS011;11748;50.844;4.396;2023-11-21T07:01:20;30.90;;;20.75;;
23159;SDS011;11748;50.844;4.396;2023-11-21T07:03:47;32.70;;;19.88;;
23159;SDS011;11748;50.844;4.396;2023-11-21T07:06:12;34.67;;;20.83;;
23159;SDS011;11748;50.844;4.396;2023-11-21T07:08:38;31.15;;;19.92;;
23159;SDS011;11748;50.844;4.396;2023-11-21T07:11:04;29.00;;;19.83;;
23159;SDS011;11748;50.844;4.396;2023-11-21T07:13:30;33.97;;;20.70;;
23159;SDS011;11748;50.844;4.396;2023-11-21T07:15:57;25.70;;;18.50;;
23159;SDS011;11748;50.844;4.396;2023-11-21T07:18:24;27.25;;;18.42;;
23159;SDS011;11748;50.844;4.396;2023-11-21T07:20:50;25.35;;;17.55;;
23159;SDS011;11748;50.844;4.396;2023-11-21T07:23:17;26.70;;;19.00;;
23159;SDS011;11748;50.844;4.396;2023-11-21T07:25:42;29.50;;;18.67;;
23159;SDS011;11748;50.844;4.396;2023-11-21T07:28:08;30.05;;;18.58;;
23159;SDS011;11748;50.844;4.396;2023-11-21T07:30:35;30.58;;;20.42;;
23159;SDS011;11748;50.844;4.396;2023-11-21T07:33:01;31.90;;;21.08;;
23159;SDS011;11748;50.844;4.396;2023-11-21T07:35:26;30.75;;;20.65;;
23159;SDS011;11748;50.844;4.396;2023-11-21T07:37:52;30.58;;;20.80;;
23159;SDS011;11748;50.844;4.396;2023-11-21T07:40:18;32.95;;;21.58;;
23159;SDS011;11748;50.844;4.396;2023-11-21T07:42:43;33.05;;;22.75;;
23159;SDS011;11748;50.844;4.396;2023-11-21T07:45:09;37.03;;;22.45;;
23159;SDS011;11748;50.844;4.396;2023-11-21T07:47:35;36.97;;;22.30;;
23159;SDS011;11748;50.844;4.396;2023-11-21T07:50:04;32.58;;;22.00;;
23159;SDS011;11748;50.844;4.396;2023-11-21T07:52:31;34.03;;;21.40;;
23159;SDS011;11748;50.844;4.396;2023-11-21T07:54:57;38.78;;;22.30;;
23159;SDS011;11748;50.844;4.396;2023-11-21T07:57:22;34.38;;;22.02;;
23159;SDS011;11748;50.844;4.396;2023-11-21T07:59:48;34.67;;;22.13;;
23159;SDS011;11748;50.844;4.396;2023-11-21T08:02:14;39.08;;;21.95;;
23159;SDS011;11748;50.844;4.396;2023-11-21T08:04:41;41.30;;;22.48;;
23159;SDS011;11748;50.844;4.396;2023-11-21T08:07:07;40.53;;;22.48;;
23159;SDS011;11748;50.844;4.396;2023-11-21T08:09:32;37.33;;;22.35;;
23159;SDS011;11748;50.844;4.396;2023-11-21T08:11:59;39.13;;;23.05;;
23159;SDS011;11748;50.844;4.396;2023-11-21T08:14:27;35.58;;;22.73;;
23159;SDS011;11748;50.844;4.396;2023-11-21T08:16:53;40.53;;;22.08;;
23159;SDS011;11748;50.844;4.396;2023-11-21T08:19:23;42.53;;;24.10;;
23159;SDS011;11748;50.844;4.396;2023-11-21T08:21:50;43.30;;;23.35;;
23159;SDS011;11748;50.844;4.396;2023-11-21T08:24:16;43.63;;;25.05;;
23159;SDS011;11748;50.844;4.396;2023-11-21T08:26:42;39.72;;;23.92;;
23159;SDS011;11748;50.844;4.396;2023-11-21T08:29:08;41.92;;;23.08;;
23159;SDS011;11748;50.844;4.396;2023-11-21T08:31:34;43.35;;;23.60;;
23159;SDS011;11748;50.844;4.396;2023-11-21T08:33:59;41.72;;;23.00;;
23159;SDS011;11748;50.844;4.396;2023-11-21T08:36:28;39.50;;;23.17;;
23159;SDS011;11748;50.844;4.396;2023-11-21T08:38:53;43.08;;;23.25;;
23159;SDS011;11748;50.844;4.396;2023-11-21T08:41:19;40.92;;;23.05;;
23159;SDS011;11748;50.844;4.396;2023-11-21T08:43:49;47.72;;;24.40;;
23159;SDS011;11748;50.844;4.396;2023-11-21T08:46:16;42.30;;;24.77;;
23159;SDS011;11748;50.844;4.396;2023-11-21T08:48:45;40.63;;;23.27;;
23159;SDS011;11748;50.844;4.396;2023-11-21T08:51:11;40.20;;;22.50;;
23159;SDS011;11748;50.844;4.396;2023-11-21T08:53:39;38.85;;;22.10;;
23159;SDS011;11748;50.844;4.396;2023-11-21T08:56:05;43.08;;;21.65;;
23159;SDS011;11748;50.844;4.396;2023-11-21T08:58:31;43.97;;;22.95;;
23159;SDS011;11748;50.844;4.396;2023-11-21T09:00:57;45.97;;;22.75;;
23159;SDS011;11748;50.844;4.396;2023-11-21T09:03:23;39.13;;;21.25;;
23159;SDS011;11748;50.844;4.396;2023-11-21T09:05:50;43.22;;;22.83;;
23159;SDS011;11748;50.844;4.396;2023-11-21T09:08:16;47.78;;;23.52;;
23159;SDS011;11748;50.844;4.396;2023-11-21T09:10:42;51.35;;;24.52;;
23159;SDS011;11748;50.844;4.396;2023-11-21T09:13:10;42.65;;;23.60;;
23159;SDS011;11748;50.844;4.396;2023-11-21T09:15:36;55.97;;;26.90;;
23159;SDS011;11748;50.844;4.396;2023-11-21T09:18:02;43.25;;;22.38;;
23159;SDS011;11748;50.844;4.396;2023-11-21T09:20:28;44.92;;;25.05;;
23159;SDS011;11748;50.844;4.396;2023-11-21T09:22:54;48.88;;;23.15;;
23159;SDS011;11748;50.844;4.396;2023-11-21T09:25:21;48.83;;;24.40;;
23159;SDS011;11748;50.844;4.396;2023-11-21T09:27:47;51.42;;;23.30;;
23159;SDS011;11748;50.844;4.396;2023-11-21T09:30:13;53.67;;;25.02;;
23159;SDS011;11748;50.844;4.396;2023-11-21T09:32:42;53.90;;;24.85;;
23159;SDS011;11748;50.844;4.396;2023-11-21T09:35:10;51.78;;;23.70;;
23159;SDS011;11748;50.844;4.396;2023-11-21T09:37:38;49.55;;;22.95;;
23159;SDS011;11748;50.844;4.396;2023-11-21T09:40:05;43.83;;;21.33;;
23159;SDS011;11748;50.844;4.396;2023-11-21T09:42:47;47.50;;;22.60;;
23159;SDS011;11748;50.844;4.396;2023-11-21T09:45:21;43.20;;;23.05;;
23159;SDS011;11748;50.844;4.396;2023-11-21T09:47:57;38.78;;;22.27;;
23159;SDS011;11748;50.844;4.396;2023-11-21T09:50:23;40.80;;;20.08;;
23159;SDS011;11748;50.844;4.396;2023-11-21T09:55:41;38.15;;;20.30;;
23159;SDS011;11748;50.844;4.396;2023-11-21T09:58:09;37.50;;;19.98;;
23159;SDS011;11748;50.844;4.396;2023-11-21T10:00:39;37.58;;;18.77;;
23159;SDS011;11748;50.844;4.396;2023-11-21T10:03:09;33.35;;;18.92;;
23159;SDS011;11748;50.844;4.396;2023-11-21T10:05:36;37.10;;;18.73;;
23159;SDS011;11748;50.844;4.396;2023-11-21T10:08:12;36.88;;;20.77;;
23159;SDS011;11748;50.844;4.396;2023-11-21T10:10:38;44.08;;;20.98;;
23159;SDS011;11748;50.844;4.396;2023-11-21T10:13:11;35.17;;;19.67;;
23159;SDS011;11748;50.844;4.396;2023-11-21T10:15:39;30.88;;;17.77;;
23159;SDS011;11748;50.844;4.396;2023-11-21T10:18:09;24.98;;;17.30;;
23159;SDS011;11748;50.844;4.396;2023-11-21T10:20:36;25.42;;;17.27;;
23159;SDS011;11748;50.844;4.396;2023-11-21T10:23:03;24.92;;;16.02;;
23159;SDS011;11748;50.844;4.396;2023-11-21T10:25:30;22.63;;;15.95;;
23159;SDS011;11748;50.844;4.396;2023-11-21T10:27:59;21.98;;;15.73;;
23159;SDS011;11748;50.844;4.396;2023-11-21T10:30:36;22.88;;;16.15;;
23159;SDS011;11748;50.844;4.396;2023-11-21T10:33:03;22.23;;;15.60;;
23159;SDS011;11748;50.844;4.396;2023-11-21T10:38:15;26.70;;;17.35;;
23159;SDS011;11748;50.844;4.396;2023-11-21T10:43:11;24.23;;;16.52;;
23159;SDS011;11748;50.844;4.396;2023-11-21T10:45:38;26.70;;;16.83;;
23159;SDS011;11748;50.844;4.396;2023-11-21T10:48:05;23.27;;;16.05;;
23159;SDS011;11748;50.844;4.396;2023-11-21T10:50:33;20.88;;;15.52;;
23159;SDS011;11748;50.844;4.396;2023-11-21T10:53:03;22.80;;;16.25;;
23159;SDS011;11748;50.844;4.396;2023-11-21T10:55:30;23.05;;;15.38;;
23159;SDS011;11748;50.844;4.396;2023-11-21T10:58:01;21.58;;;15.57;;
23159;SDS011;11748;50.844;4.396;2023-11-21T11:00:29;23.95;;;16.27;;
23159;SDS011;11748;50.844;4.396;2023-11-21T11:02:57;25.38;;;16.55;;
23159;SDS011;11748;50.844;4.396;2023-11-21T11:05:24;23.60;;;16.42;;
23159;SDS011;11748;50.844;4.396;2023-11-21T11:07:52;25.35;;;16.92;;
23159;SDS011;11748;50.844;4.396;2023-11-21T11:10:33;25.60;;;17.50;;
23159;SDS011;11748;50.844;4.396;2023-11-21T11:13:00;28.67;;;18.38;;
23159;SDS011;11748;50.844;4.396;2023-11-21T11:15:26;28.08;;;17.30;;
23159;SDS011;11748;50.844;4.396;2023-11-21T11:17:53;25.05;;;18.25;;
23159;SDS011;11748;50.844;4.396;2023-11-21T11:20:27;30.08;;;19.33;;
23159;SDS011;11748;50.844;4.396;2023-11-21T11:23:11;31.70;;;19.70;;
23159;SDS011;11748;50.844;4.396;2023-11-21T11:26:07;29.60;;;19.75;;
23159;SDS011;11748;50.844;4.396;2023-11-21T11:31:14;30.90;;;20.73;;
23159;SDS011;11748;50.844;4.396;2023-11-21T11:34:22;33.08;;;20.88;;
23159;SDS011;11748;50.844;4.396;2023-11-21T11:36:56;31.98;;;20.70;;
23159;SDS011;11748;50.844;4.396;2023-11-21T11:39:38;34.00;;;21.23;;
23159;SDS011;11748;50.844;4.396;2023-11-21T11:42:07;33.83;;;22.13;;
23159;SDS011;11748;50.844;4.396;2023-11-21T11:47:21;33.28;;;23.83;;
23159;SDS011;11748;50.844;4.396;2023-11-21T11:50:05;36.10;;;23.65;;
23159;SDS011;11748;50.844;4.396;2023-11-21T11:52:33;32.25;;;23.40;;
23159;SDS011;11748;50.844;4.396;2023-11-21T11:55:00;34.47;;;22.38;;
23159;SDS011;11748;50.844;4.396;2023-11-21T11:57:31;28.52;;;20.80;;
23159;SDS011;11748;50.844;4.396;2023-11-21T12:00:13;30.48;;;20.65;;
23159;SDS011;11748;50.844;4.396;2023-11-21T12:02:47;24.42;;;18.85;;
23159;SDS011;11748;50.844;4.396;2023-11-21T12:05:17;28.85;;;20.45;;
23159;SDS011;11748;50.844;4.396;2023-11-21T12:10:21;24.52;;;18.17;;
23159;SDS011;11748;50.844;4.396;2023-11-21T12:13:10;17.92;;;15.25;;
23159;SDS011;11748;50.844;4.396;2023-11-21T12:15:38;17.88;;;13.93;;
23159;SDS011;11748;50.844;4.396;2023-11-21T12:18:06;18.10;;;14.40;;
23159;SDS011;11748;50.844;4.396;2023-11-21T12:20:32;17.65;;;13.98;;
23159;SDS011;11748;50.844;4.396;2023-11-21T12:23:03;19.35;;;14.00;;
23159;SDS011;11748;50.844;4.396;2023-11-21T12:25:31;18.55;;;14.27;;
23159;SDS011;11748;50.844;4.396;2023-11-21T12:27:58;16.60;;;13.85;;
23159;SDS011;11748;50.844;4.396;2023-11-21T12:30:26;16.77;;;13.23;;
23159;SDS011;11748;50.844;4.396;2023-11-21T12:33:00;14.90;;;11.30;;
23159;SDS011;11748;50.844;4.396;2023-11-21T12:35:34;14.43;;;12.00;;
23159;SDS011;11748;50.844;4.396;2023-11-21T12:38:01;17.55;;;11.90;;
23159;SDS011;11748;50.844;4.396;2023-11-21T12:40:31;15.70;;;12.00;;
23159;SDS011;11748;50.844;4.396;2023-11-21T12:42:57;13.55;;;12.07;;
23159;SDS011;11748;50.844;4.396;2023-11-21T12:45:27;13.90;;;11.48;;
23159;SDS011;11748;50.844;4.396;2023-11-21T12:47:57;17.08;;;11.43;;
23159;SDS011;11748;50.844;4.396;2023-11-21T12:50:26;14.55;;;11.95;;
23159;SDS011;11748;50.844;4.396;2023-11-21T12:53:03;13.35;;;11.15;;
23159;SDS011;11748;50.844;4.396;2023-11-21T12:55:31;14.13;;;11.55;;
23159;SDS011;11748;50.844;4.396;2023-11-21T12:58:01;14.73;;;12.43;;
23159;SDS011;11748;50.844;4.396;2023-11-21T13:00:38;13.45;;;11.38;;
23159;SDS011;11748;50.844;4.396;2023-11-21T13:03:07;12.27;;;11.00;;
23159;SDS011;11748;50.844;4.396;2023-11-21T13:05:36;15.05;;;11.25;;
23159;SDS011;11748;50.844;4.396;2023-11-21T13:08:07;18.65;;;11.63;;
23159;SDS011;11748;50.844;4.396;2023-11-21T13:10:37;14.20;;;11.40;;
23159;SDS011;11748;50.844;4.396;2023-11-21T13:13:10;17.20;;;12.07;;
23159;SDS011;11748;50.844;4.396;2023-11-21T13:15:46;13.82;;;11.68;;
23159;SDS011;11748;50.844;4.396;2023-11-21T13:18:17;14.40;;;12.38;;
23159;SDS011;11748;50.844;4.396;2023-11-21T13:20:43;14.02;;;12.15;;
23159;SDS011;11748;50.844;4.396;2023-11-21T13:23:10;15.75;;;12.18;;
23159;SDS011;11748;50.844;4.396;2023-11-21T13:25:44;16.50;;;12.70;;
23159;SDS011;11748;50.844;4.396;2023-11-21T13:28:14;20.75;;;13.30;;
23159;SDS011;11748;50.844;4.396;2023-11-21T13:30:47;19.88;;;14.68;;
23159;SDS011;11748;50.844;4.396;2023-11-21T13:33:13;19.90;;;12.43;;
23159;SDS011;11748;50.844;4.396;2023-11-21T13:35:52;19.90;;;12.85;;
23159;SDS011;11748;50.844;4.396;2023-11-21T13:38:18;17.38;;;12.85;;
23159;SDS011;11748;50.844;4.396;2023-11-21T13:40:53;17.92;;;13.65;;
23159;SDS011;11748;50.844;4.396;2023-11-21T13:43:21;17.90;;;13.25;;
23159;SDS011;11748;50.844;4.396;2023-11-21T13:45:50;17.73;;;14.50;;
23159;SDS011;11748;50.844;4.396;2023-11-21T13:48:24;19.05;;;13.60;;
23159;SDS011;11748;50.844;4.396;2023-11-21T13:50:56;18.75;;;12.23;;
23159;SDS011;11748;50.844;4.396;2023-11-21T13:53:48;18.23;;;12.43;;
23159;SDS011;11748;50.844;4.396;2023-11-21T13:56:18;15.07;;;11.20;;
23159;SDS011;11748;50.844;4.396;2023-11-21T13:58:53;18.05;;;10.95;;
23159;SDS011;11748;50.844;4.396;2023-11-21T14:01:21;13.68;;;8.10;;
23159;SDS011;11748;50.844;4.396;2023-11-21T14:04:00;8.88;;;7.88;;
23159;SDS011;11748;50.844;4.396;2023-11-21T14:09:15;9.10;;;6.07;;
23159;SDS011;11748;50.844;4.396;2023-11-21T14:11:52;11.00;;;6.03;;
23159;SDS011;11748;50.844;4.396;2023-11-21T14:14:19;7.45;;;6.63;;
23159;SDS011;11748;50.844;4.396;2023-11-21T14:16:46;7.75;;;6.03;;
23159;SDS011;11748;50.844;4.396;2023-11-21T14:19:12;10.70;;;6.38;;
23159;SDS011;11748;50.844;4.396;2023-11-21T14:21:42;8.90;;;6.43;;
23159;SDS011;11748;50.844;4.396;2023-11-21T14:24:08;6.95;;;6.25;;
23159;SDS011;11748;50.844;4.396;2023-11-21T14:26:35;9.23;;;6.25;;
23159;SDS011;11748;50.844;4.396;2023-11-21T14:29:00;9.70;;;6.57;;
23159;SDS011;11748;50.844;4.396;2023-11-21T14:31:27;8.50;;;6.18;;
23159;SDS011;11748;50.844;4.396;2023-11-21T14:33:56;8.77;;;6.25;;
23159;SDS011;11748;50.844;4.396;2023-11-21T14:36:22;8.18;;;6.40;;
23159;SDS011;11748;50.844;4.396;2023-11-21T14:38:49;7.22;;;6.40;;
23159;SDS011;11748;50.844;4.396;2023-11-21T14:41:15;10.57;;;6.05;;
23159;SDS011;11748;50.844;4.396;2023-11-21T14:43:41;8.80;;;6.32;;
23159;SDS011;11748;50.844;4.396;2023-11-21T14:46:10;9.70;;;6.32;;